sensor_id;sensor_type;location;lat;lon;timestamp;P1;durP1;ratioP1;P2;durP2;ratioP2
9848;SDS011;4963;51.444;6.528;2022-11-20T00:01:07;21.27;;;13.20;;
9848;SDS011;4963;51.444;6.528;2022-11-20T00:03:36;24.83;;;14.50;;
9848;SDS011;4963;51.444;6.528;2022-11-20T00:06:03;21.90;;;13.83;;
9848;SDS011;4963;51.444;6.528;2022-11-20T00:08:31;25.97;;;14.80;;
9848;SDS011;4963;51.444;6.528;2022-11-20T00:11:03;21.57;;;13.17;;
9848;SDS011;4963;51.444;6.528;2022-11-20T00:13:30;17.53;;;12.37;;
9848;SDS011;4963;51.444;6.528;2022-11-20T00:15:58;16.47;;;11.50;;
9848;SDS011;4963;51.444;6.528;2022-11-20T00:18:26;19.33;;;12.23;;
9848;SDS011;4963;51.444;6.528;2022-11-20T00:20:59;17.90;;;12.03;;
9848;SDS011;4963;51.444;6.528;2022-11-20T00:23:27;19.03;;;12.07;;
9848;SDS011;4963;51.444;6.528;2022-11-20T00:25:54;16.97;;;12.37;;
9848;SDS011;4963;51.444;6.528;2022-11-20T00:28:22;16.80;;;11.77;;
9848;SDS011;4963;51.444;6.528;2022-11-20T00:30:49;17.37;;;12.10;;
9848;SDS011;4963;51.444;6.528;2022-11-20T00:33:15;16.70;;;11.93;;
9848;SDS011;4963;51.444;6.528;2022-11-20T00:35:42;18.60;;;12.23;;
9848;SDS011;4963;51.444;6.528;2022-11-20T00:38:09;16.93;;;11.90;;
9848;SDS011;4963;51.444;6.528;2022-11-20T00:40:36;18.10;;;12.27;;
9848;SDS011;4963;51.444;6.528;2022-11-20T00:43:02;17.50;;;12.00;;
9848;SDS011;4963;51.444;6.528;2022-11-20T00:45:30;16.40;;;11.97;;
9848;SDS011;4963;51.444;6.528;2022-11-20T00:47:57;15.70;;;12.50;;
9848;SDS011;4963;51.444;6.528;2022-11-20T00:50:24;17.07;;;12.63;;
9848;SDS011;4963;51.444;6.528;2022-11-20T00:52:51;16.10;;;11.97;;
9848;SDS011;4963;51.444;6.528;2022-11-20T00:55:17;16.33;;;11.80;;
9848;SDS011;4963;51.444;6.528;2022-11-20T00:57:44;18.10;;;12.87;;
9848;SDS011;4963;51.444;6.528;2022-11-20T01:00:11;16.47;;;12.37;;
9848;SDS011;4963;51.444;6.528;2022-11-20T01:02:39;17.77;;;12.80;;
9848;SDS011;4963;51.444;6.528;2022-11-20T01:05:06;16.03;;;12.13;;
9848;SDS011;4963;51.444;6.528;2022-11-20T01:07:33;17.37;;;12.07;;
9848;SDS011;4963;51.444;6.528;2022-11-20T01:10:00;20.47;;;12.83;;
9848;SDS011;4963;51.444;6.528;2022-11-20T01:12:26;17.07;;;12.27;;
9848;SDS011;4963;51.444;6.528;2022-11-20T01:14:53;17.47;;;12.73;;
9848;SDS011;4963;51.444;6.528;2022-11-20T01:17:20;16.07;;;11.07;;
9848;SDS011;4963;51.444;6.528;2022-11-20T01:19:49;15.93;;;11.63;;
9848;SDS011;4963;51.444;6.528;2022-11-20T01:22:16;14.70;;;11.23;;
9848;SDS011;4963;51.444;6.528;2022-11-20T01:24:43;19.00;;;11.57;;
9848;SDS011;4963;51.444;6.528;2022-11-20T01:27:09;17.70;;;11.07;;
9848;SDS011;4963;51.444;6.528;2022-11-20T01:29:36;16.23;;;11.27;;
9848;SDS011;4963;51.444;6.528;2022-11-20T01:32:03;15.83;;;11.20;;
9848;SDS011;4963;51.444;6.528;2022-11-20T01:34:30;16.77;;;12.37;;
9848;SDS011;4963;51.444;6.528;2022-11-20T01:36:58;15.87;;;11.10;;
9848;SDS011;4963;51.444;6.528;2022-11-20T01:39:26;16.07;;;11.97;;
9848;SDS011;4963;51.444;6.528;2022-11-20T01:41:53;16.17;;;11.77;;
9848;SDS011;4963;51.444;6.528;2022-11-20T01:44:43;15.53;;;11.33;;
9848;SDS011;4963;51.444;6.528;2022-11-20T01:47:16;15.30;;;12.10;;
9848;SDS011;4963;51.444;6.528;2022-11-20T01:49:48;16.60;;;12.03;;
9848;SDS011;4963;51.444;6.528;2022-11-20T01:52:20;15.80;;;11.27;;
9848;SDS011;4963;51.444;6.528;2022-11-20T01:54:51;18.27;;;11.43;;
9848;SDS011;4963;51.444;6.528;2022-11-20T01:57:21;17.90;;;12.77;;
9848;SDS011;4963;51.444;6.528;2022-11-20T01:59:51;17.40;;;12.67;;
9848;SDS011;4963;51.444;6.528;2022-11-20T02:02:21;17.93;;;13.23;;
9848;SDS011;4963;51.444;6.528;2022-11-20T02:04:48;16.17;;;12.00;;
9848;SDS011;4963;51.444;6.528;2022-11-20T02:07:17;16.07;;;12.00;;
9848;SDS011;4963;51.444;6.528;2022-11-20T02:09:47;16.53;;;12.30;;
9848;SDS011;4963;51.444;6.528;2022-11-20T02:12:14;16.13;;;11.97;;
9848;SDS011;4963;51.444;6.528;2022-11-20T02:14:55;15.93;;;11.77;;
9848;SDS011;4963;51.444;6.528;2022-11-20T02:17:23;17.90;;;11.73;;
9848;SDS011;4963;51.444;6.528;2022-11-20T02:19:50;15.50;;;11.97;;
9848;SDS011;4963;51.444;6.528;2022-11-20T02:22:18;19.00;;;12.53;;
9848;SDS011;4963;51.444;6.528;2022-11-20T02:24:53;16.07;;;11.80;;
9848;SDS011;4963;51.444;6.528;2022-11-20T02:27:20;18.33;;;13.57;;
9848;SDS011;4963;51.444;6.528;2022-11-20T02:29:48;20.60;;;13.87;;
9848;SDS011;4963;51.444;6.528;2022-11-20T02:32:18;16.57;;;12.57;;
9848;SDS011;4963;51.444;6.528;2022-11-20T02:34:46;19.63;;;13.33;;
9848;SDS011;4963;51.444;6.528;2022-11-20T02:37:13;19.10;;;12.90;;
9848;SDS011;4963;51.444;6.528;2022-11-20T02:39:40;18.97;;;12.97;;
9848;SDS011;4963;51.444;6.528;2022-11-20T02:42:10;17.67;;;12.10;;
9848;SDS011;4963;51.444;6.528;2022-11-20T02:44:37;17.27;;;12.83;;
9848;SDS011;4963;51.444;6.528;2022-11-20T02:47:04;17.23;;;13.43;;
9848;SDS011;4963;51.444;6.528;2022-11-20T02:49:30;17.43;;;13.57;;
9848;SDS011;4963;51.444;6.528;2022-11-20T02:51:58;16.37;;;12.27;;
9848;SDS011;4963;51.444;6.528;2022-11-20T02:54:25;16.43;;;11.97;;
9848;SDS011;4963;51.444;6.528;2022-11-20T02:56:52;18.87;;;14.03;;
9848;SDS011;4963;51.444;6.528;2022-11-20T02:59:20;18.37;;;13.03;;
9848;SDS011;4963;51.444;6.528;2022-11-20T03:01:47;17.53;;;12.70;;
9848;SDS011;4963;51.444;6.528;2022-11-20T03:04:14;16.83;;;12.80;;
9848;SDS011;4963;51.444;6.528;2022-11-20T03:06:40;17.87;;;13.00;;
9848;SDS011;4963;51.444;6.528;2022-11-20T03:09:07;20.27;;;12.80;;
9848;SDS011;4963;51.444;6.528;2022-11-20T03:11:34;22.93;;;14.70;;
9848;SDS011;4963;51.444;6.528;2022-11-20T03:14:01;20.73;;;15.03;;
9848;SDS011;4963;51.444;6.528;2022-11-20T03:16:30;17.87;;;14.20;;
9848;SDS011;4963;51.444;6.528;2022-11-20T03:18:58;22.23;;;14.97;;
9848;SDS011;4963;51.444;6.528;2022-11-20T03:21:25;18.10;;;13.90;;
9848;SDS011;4963;51.444;6.528;2022-11-20T03:23:52;21.07;;;14.57;;
9848;SDS011;4963;51.444;6.528;2022-11-20T03:26:20;21.30;;;13.97;;
9848;SDS011;4963;51.444;6.528;2022-11-20T03:28:49;17.43;;;14.03;;
9848;SDS011;4963;51.444;6.528;2022-11-20T03:31:18;19.83;;;13.93;;
9848;SDS011;4963;51.444;6.528;2022-11-20T03:33:48;17.07;;;12.43;;
9848;SDS011;4963;51.444;6.528;2022-11-20T03:36:16;18.77;;;12.63;;
9848;SDS011;4963;51.444;6.528;2022-11-20T03:38:44;17.07;;;12.40;;
9848;SDS011;4963;51.444;6.528;2022-11-20T03:41:11;16.97;;;12.10;;
9848;SDS011;4963;51.444;6.528;2022-11-20T03:43:39;18.57;;;13.00;;
9848;SDS011;4963;51.444;6.528;2022-11-20T03:46:07;17.27;;;13.03;;
9848;SDS011;4963;51.444;6.528;2022-11-20T03:48:34;17.87;;;13.47;;
9848;SDS011;4963;51.444;6.528;2022-11-20T03:51:09;17.00;;;13.53;;
9848;SDS011;4963;51.444;6.528;2022-11-20T03:53:37;16.87;;;12.43;;
9848;SDS011;4963;51.444;6.528;2022-11-20T03:56:05;17.53;;;13.53;;
9848;SDS011;4963;51.444;6.528;2022-11-20T03:58:32;15.37;;;11.07;;
9848;SDS011;4963;51.444;6.528;2022-11-20T04:01:04;17.03;;;11.50;;
9848;SDS011;4963;51.444;6.528;2022-11-20T04:03:32;17.20;;;12.80;;
9848;SDS011;4963;51.444;6.528;2022-11-20T04:06:01;17.23;;;12.63;;
9848;SDS011;4963;51.444;6.528;2022-11-20T04:08:30;15.70;;;11.43;;
9848;SDS011;4963;51.444;6.528;2022-11-20T04:11:07;16.40;;;12.07;;
9848;SDS011;4963;51.444;6.528;2022-11-20T04:13:35;19.47;;;13.67;;
9848;SDS011;4963;51.444;6.528;2022-11-20T04:16:02;16.93;;;13.07;;
9848;SDS011;4963;51.444;6.528;2022-11-20T04:18:29;18.10;;;12.47;;
9848;SDS011;4963;51.444;6.528;2022-11-20T04:20:56;16.90;;;12.80;;
9848;SDS011;4963;51.444;6.528;2022-11-20T04:23:23;16.90;;;12.47;;
9848;SDS011;4963;51.444;6.528;2022-11-20T04:25:51;18.77;;;12.27;;
9848;SDS011;4963;51.444;6.528;2022-11-20T04:28:18;17.17;;;12.43;;
9848;SDS011;4963;51.444;6.528;2022-11-20T04:30:45;17.07;;;12.33;;
9848;SDS011;4963;51.444;6.528;2022-11-20T04:33:12;19.03;;;12.33;;
9848;SDS011;4963;51.444;6.528;2022-11-20T04:35:38;15.77;;;12.17;;
9848;SDS011;4963;51.444;6.528;2022-11-20T04:38:05;17.07;;;12.30;;
9848;SDS011;4963;51.444;6.528;2022-11-20T04:40:32;17.03;;;12.20;;
9848;SDS011;4963;51.444;6.528;2022-11-20T04:43:00;17.43;;;12.70;;
9848;SDS011;4963;51.444;6.528;2022-11-20T04:45:27;17.13;;;12.13;;
9848;SDS011;4963;51.444;6.528;2022-11-20T04:47:54;18.07;;;13.07;;
9848;SDS011;4963;51.444;6.528;2022-11-20T04:50:20;19.60;;;13.20;;
9848;SDS011;4963;51.444;6.528;2022-11-20T04:52:47;19.67;;;13.80;;
9848;SDS011;4963;51.444;6.528;2022-11-20T04:55:14;21.87;;;14.07;;
9848;SDS011;4963;51.444;6.528;2022-11-20T04:57:41;18.90;;;13.40;;
9848;SDS011;4963;51.444;6.528;2022-11-20T05:00:09;17.80;;;13.20;;
9848;SDS011;4963;51.444;6.528;2022-11-20T05:02:37;19.10;;;14.00;;
9848;SDS011;4963;51.444;6.528;2022-11-20T05:05:04;18.50;;;13.90;;
9848;SDS011;4963;51.444;6.528;2022-11-20T05:07:31;18.10;;;13.80;;
9848;SDS011;4963;51.444;6.528;2022-11-20T05:09:58;20.10;;;13.83;;
9848;SDS011;4963;51.444;6.528;2022-11-20T05:12:24;21.20;;;13.40;;
9848;SDS011;4963;51.444;6.528;2022-11-20T05:14:51;18.57;;;13.47;;
9848;SDS011;4963;51.444;6.528;2022-11-20T05:17:19;19.80;;;14.50;;
9848;SDS011;4963;51.444;6.528;2022-11-20T05:19:46;19.23;;;13.30;;
9848;SDS011;4963;51.444;6.528;2022-11-20T05:22:13;16.87;;;12.97;;
9848;SDS011;4963;51.444;6.528;2022-11-20T05:24:40;18.90;;;12.50;;
9848;SDS011;4963;51.444;6.528;2022-11-20T05:27:06;14.97;;;12.23;;
9848;SDS011;4963;51.444;6.528;2022-11-20T05:29:33;17.37;;;12.50;;
9848;SDS011;4963;51.444;6.528;2022-11-20T05:32:00;17.87;;;12.67;;
9848;SDS011;4963;51.444;6.528;2022-11-20T05:34:28;19.17;;;13.07;;
9848;SDS011;4963;51.444;6.528;2022-11-20T05:36:55;17.80;;;12.97;;
9848;SDS011;4963;51.444;6.528;2022-11-20T05:39:21;18.00;;;13.10;;
9848;SDS011;4963;51.444;6.528;2022-11-20T05:41:48;17.40;;;12.90;;
9848;SDS011;4963;51.444;6.528;2022-11-20T05:44:35;16.60;;;12.53;;
9848;SDS011;4963;51.444;6.528;2022-11-20T05:47:02;17.27;;;13.80;;
9848;SDS011;4963;51.444;6.528;2022-11-20T05:49:30;17.60;;;12.93;;
9848;SDS011;4963;51.444;6.528;2022-11-20T05:51:57;18.50;;;13.23;;
9848;SDS011;4963;51.444;6.528;2022-11-20T05:54:24;17.67;;;13.87;;
9848;SDS011;4963;51.444;6.528;2022-11-20T05:56:51;19.07;;;13.40;;
9848;SDS011;4963;51.444;6.528;2022-11-20T05:59:17;15.23;;;12.47;;
9848;SDS011;4963;51.444;6.528;2022-11-20T06:01:44;18.27;;;13.00;;
9848;SDS011;4963;51.444;6.528;2022-11-20T06:04:11;20.20;;;13.53;;
9848;SDS011;4963;51.444;6.528;2022-11-20T06:06:39;18.20;;;13.37;;
9848;SDS011;4963;51.444;6.528;2022-11-20T06:09:06;16.60;;;13.10;;
9848;SDS011;4963;51.444;6.528;2022-11-20T06:11:32;18.67;;;13.83;;
9848;SDS011;4963;51.444;6.528;2022-11-20T06:13:59;18.03;;;13.80;;
9848;SDS011;4963;51.444;6.528;2022-11-20T06:16:26;21.00;;;14.63;;
9848;SDS011;4963;51.444;6.528;2022-11-20T06:18:53;19.40;;;13.80;;
9848;SDS011;4963;51.444;6.528;2022-11-20T06:21:20;20.47;;;14.57;;
9848;SDS011;4963;51.444;6.528;2022-11-20T06:23:51;18.43;;;13.40;;
9848;SDS011;4963;51.444;6.528;2022-11-20T06:26:20;20.53;;;14.87;;
9848;SDS011;4963;51.444;6.528;2022-11-20T06:28:47;16.90;;;13.97;;
9848;SDS011;4963;51.444;6.528;2022-11-20T06:31:15;22.40;;;15.90;;
9848;SDS011;4963;51.444;6.528;2022-11-20T06:33:44;20.07;;;14.60;;
9848;SDS011;4963;51.444;6.528;2022-11-20T06:36:11;34.07;;;21.93;;
9848;SDS011;4963;51.444;6.528;2022-11-20T06:38:40;25.53;;;17.00;;
9848;SDS011;4963;51.444;6.528;2022-11-20T06:41:09;26.83;;;17.43;;
9848;SDS011;4963;51.444;6.528;2022-11-20T06:43:38;26.37;;;18.00;;
9848;SDS011;4963;51.444;6.528;2022-11-20T06:46:04;22.60;;;15.23;;
9848;SDS011;4963;51.444;6.528;2022-11-20T06:48:32;19.70;;;13.70;;
9848;SDS011;4963;51.444;6.528;2022-11-20T06:50:59;20.23;;;14.60;;
9848;SDS011;4963;51.444;6.528;2022-11-20T06:53:25;18.77;;;14.97;;
9848;SDS011;4963;51.444;6.528;2022-11-20T06:55:55;19.33;;;14.40;;
9848;SDS011;4963;51.444;6.528;2022-11-20T06:58:25;18.23;;;14.43;;
9848;SDS011;4963;51.444;6.528;2022-11-20T07:00:53;20.63;;;15.10;;
9848;SDS011;4963;51.444;6.528;2022-11-20T07:03:20;21.97;;;14.97;;
9848;SDS011;4963;51.444;6.528;2022-11-20T07:05:46;19.83;;;14.30;;
9848;SDS011;4963;51.444;6.528;2022-11-20T07:08:13;20.93;;;13.67;;
9848;SDS011;4963;51.444;6.528;2022-11-20T07:10:40;19.93;;;14.40;;
9848;SDS011;4963;51.444;6.528;2022-11-20T07:13:07;21.07;;;14.30;;
9848;SDS011;4963;51.444;6.528;2022-11-20T07:15:35;18.73;;;14.73;;
9848;SDS011;4963;51.444;6.528;2022-11-20T07:18:02;17.83;;;13.93;;
9848;SDS011;4963;51.444;6.528;2022-11-20T07:20:28;16.93;;;13.40;;
9848;SDS011;4963;51.444;6.528;2022-11-20T07:22:55;17.77;;;13.43;;
9848;SDS011;4963;51.444;6.528;2022-11-20T07:25:22;19.73;;;14.30;;
9848;SDS011;4963;51.444;6.528;2022-11-20T07:27:49;20.20;;;14.40;;
9848;SDS011;4963;51.444;6.528;2022-11-20T07:30:16;18.87;;;14.27;;
9848;SDS011;4963;51.444;6.528;2022-11-20T07:32:47;21.03;;;14.80;;
9848;SDS011;4963;51.444;6.528;2022-11-20T07:35:16;19.50;;;14.03;;
9848;SDS011;4963;51.444;6.528;2022-11-20T07:37:43;19.20;;;14.33;;
9848;SDS011;4963;51.444;6.528;2022-11-20T07:40:11;21.33;;;15.17;;
9848;SDS011;4963;51.444;6.528;2022-11-20T07:42:38;18.60;;;13.83;;
9848;SDS011;4963;51.444;6.528;2022-11-20T07:45:05;18.00;;;13.80;;
9848;SDS011;4963;51.444;6.528;2022-11-20T07:47:34;19.20;;;14.53;;
9848;SDS011;4963;51.444;6.528;2022-11-20T07:50:03;17.60;;;13.63;;
9848;SDS011;4963;51.444;6.528;2022-11-20T07:52:30;18.80;;;14.27;;
9848;SDS011;4963;51.444;6.528;2022-11-20T07:54:57;20.00;;;14.33;;
9848;SDS011;4963;51.444;6.528;2022-11-20T07:57:24;20.70;;;13.53;;
9848;SDS011;4963;51.444;6.528;2022-11-20T07:59:50;18.60;;;13.90;;
9848;SDS011;4963;51.444;6.528;2022-11-20T08:02:17;19.97;;;15.30;;
9848;SDS011;4963;51.444;6.528;2022-11-20T08:04:44;21.33;;;15.27;;
9848;SDS011;4963;51.444;6.528;2022-11-20T08:07:12;21.33;;;15.60;;
9848;SDS011;4963;51.444;6.528;2022-11-20T08:09:39;20.10;;;15.93;;
9848;SDS011;4963;51.444;6.528;2022-11-20T08:12:06;19.47;;;15.83;;
9848;SDS011;4963;51.444;6.528;2022-11-20T08:14:52;21.20;;;14.87;;
9848;SDS011;4963;51.444;6.528;2022-11-20T08:17:21;18.40;;;14.50;;
9848;SDS011;4963;51.444;6.528;2022-11-20T08:19:48;20.23;;;15.63;;
9848;SDS011;4963;51.444;6.528;2022-11-20T08:22:16;20.57;;;15.00;;
9848;SDS011;4963;51.444;6.528;2022-11-20T08:24:43;22.93;;;15.53;;
9848;SDS011;4963;51.444;6.528;2022-11-20T08:27:10;20.60;;;15.60;;
9848;SDS011;4963;51.444;6.528;2022-11-20T08:29:37;20.70;;;15.33;;
9848;SDS011;4963;51.444;6.528;2022-11-20T08:32:03;22.63;;;17.13;;
9848;SDS011;4963;51.444;6.528;2022-11-20T08:34:30;19.33;;;15.67;;
9848;SDS011;4963;51.444;6.528;2022-11-20T08:36:57;23.43;;;16.17;;
9848;SDS011;4963;51.444;6.528;2022-11-20T08:39:25;22.77;;;16.50;;
9848;SDS011;4963;51.444;6.528;2022-11-20T08:41:52;21.83;;;15.90;;
9848;SDS011;4963;51.444;6.528;2022-11-20T08:44:18;21.03;;;16.33;;
9848;SDS011;4963;51.444;6.528;2022-11-20T08:46:45;24.40;;;16.27;;
9848;SDS011;4963;51.444;6.528;2022-11-20T08:49:14;23.33;;;16.87;;
9848;SDS011;4963;51.444;6.528;2022-11-20T08:51:41;19.57;;;15.13;;
9848;SDS011;4963;51.444;6.528;2022-11-20T08:54:08;20.50;;;16.67;;
9848;SDS011;4963;51.444;6.528;2022-11-20T08:56:36;22.77;;;17.47;;
9848;SDS011;4963;51.444;6.528;2022-11-20T08:59:03;19.30;;;16.20;;
9848;SDS011;4963;51.444;6.528;2022-11-20T09:01:30;23.27;;;16.43;;
9848;SDS011;4963;51.444;6.528;2022-11-20T09:03:57;24.83;;;19.13;;
9848;SDS011;4963;51.444;6.528;2022-11-20T09:06:24;18.63;;;14.37;;
9848;SDS011;4963;51.444;6.528;2022-11-20T09:08:52;18.90;;;14.40;;
9848;SDS011;4963;51.444;6.528;2022-11-20T09:11:19;21.07;;;15.40;;
9848;SDS011;4963;51.444;6.528;2022-11-20T09:13:47;16.67;;;13.10;;
9848;SDS011;4963;51.444;6.528;2022-11-20T09:16:14;19.50;;;14.57;;
9848;SDS011;4963;51.444;6.528;2022-11-20T09:18:41;18.93;;;13.80;;
9848;SDS011;4963;51.444;6.528;2022-11-20T09:21:09;21.23;;;14.53;;
9848;SDS011;4963;51.444;6.528;2022-11-20T09:23:37;20.83;;;14.77;;
9848;SDS011;4963;51.444;6.528;2022-11-20T09:26:05;19.53;;;15.03;;
9848;SDS011;4963;51.444;6.528;2022-11-20T09:28:32;21.83;;;15.90;;
9848;SDS011;4963;51.444;6.528;2022-11-20T09:31:04;20.63;;;14.93;;
9848;SDS011;4963;51.444;6.528;2022-11-20T09:33:31;24.30;;;17.13;;
9848;SDS011;4963;51.444;6.528;2022-11-20T09:35:58;24.07;;;16.73;;
9848;SDS011;4963;51.444;6.528;2022-11-20T09:38:25;26.07;;;17.70;;
9848;SDS011;4963;51.444;6.528;2022-11-20T09:40:53;22.30;;;15.90;;
9848;SDS011;4963;51.444;6.528;2022-11-20T09:43:25;24.73;;;17.53;;
9848;SDS011;4963;51.444;6.528;2022-11-20T09:46:07;22.50;;;17.10;;
9848;SDS011;4963;51.444;6.528;2022-11-20T09:48:44;23.03;;;16.53;;
9848;SDS011;4963;51.444;6.528;2022-11-20T09:51:25;21.00;;;15.77;;
9848;SDS011;4963;51.444;6.528;2022-11-20T09:54:07;21.33;;;16.10;;
9848;SDS011;4963;51.444;6.528;2022-11-20T09:56:41;22.47;;;15.93;;
9848;SDS011;4963;51.444;6.528;2022-11-20T09:59:14;21.77;;;15.70;;
9848;SDS011;4963;51.444;6.528;2022-11-20T10:01:59;24.30;;;16.90;;
9848;SDS011;4963;51.444;6.528;2022-11-20T10:04:28;25.70;;;16.87;;
9848;SDS011;4963;51.444;6.528;2022-11-20T10:07:00;22.33;;;16.30;;
9848;SDS011;4963;51.444;6.528;2022-11-20T10:09:31;22.57;;;16.43;;
9848;SDS011;4963;51.444;6.528;2022-11-20T10:12:05;24.87;;;17.47;;
9848;SDS011;4963;51.444;6.528;2022-11-20T10:14:39;22.40;;;17.17;;
9848;SDS011;4963;51.444;6.528;2022-11-20T10:17:21;24.00;;;17.63;;
9848;SDS011;4963;51.444;6.528;2022-11-20T10:20:02;25.17;;;18.30;;
9848;SDS011;4963;51.444;6.528;2022-11-20T10:22:44;24.30;;;17.07;;
9848;SDS011;4963;51.444;6.528;2022-11-20T10:25:20;24.13;;;18.03;;
9848;SDS011;4963;51.444;6.528;2022-11-20T10:27:53;22.83;;;17.27;;
9848;SDS011;4963;51.444;6.528;2022-11-20T10:30:37;26.90;;;18.20;;
9848;SDS011;4963;51.444;6.528;2022-11-20T10:33:10;21.63;;;16.30;;
9848;SDS011;4963;51.444;6.528;2022-11-20T10:35:42;28.60;;;19.30;;
9848;SDS011;4963;51.444;6.528;2022-11-20T10:38:15;27.50;;;17.93;;
9848;SDS011;4963;51.444;6.528;2022-11-20T10:40:46;26.17;;;17.47;;
9848;SDS011;4963;51.444;6.528;2022-11-20T10:43:19;22.77;;;16.70;;
9848;SDS011;4963;51.444;6.528;2022-11-20T10:45:53;26.73;;;18.60;;
9848;SDS011;4963;51.444;6.528;2022-11-20T10:48:26;26.00;;;18.00;;
9848;SDS011;4963;51.444;6.528;2022-11-20T10:51:03;26.47;;;18.00;;
9848;SDS011;4963;51.444;6.528;2022-11-20T10:56:25;27.83;;;17.80;;
9848;SDS011;4963;51.444;6.528;2022-11-20T10:59:03;23.80;;;17.00;;
9848;SDS011;4963;51.444;6.528;2022-11-20T11:01:45;27.60;;;17.47;;
9848;SDS011;4963;51.444;6.528;2022-11-20T11:04:18;31.20;;;18.93;;
9848;SDS011;4963;51.444;6.528;2022-11-20T11:06:56;33.30;;;19.93;;
9848;SDS011;4963;51.444;6.528;2022-11-20T11:09:32;31.77;;;20.20;;
9848;SDS011;4963;51.444;6.528;2022-11-20T11:12:05;34.73;;;20.70;;
9848;SDS011;4963;51.444;6.528;2022-11-20T11:14:41;31.33;;;19.50;;
9848;SDS011;4963;51.444;6.528;2022-11-20T11:17:23;54.80;;;30.63;;
9848;SDS011;4963;51.444;6.528;2022-11-20T11:20:14;40.77;;;24.37;;
9848;SDS011;4963;51.444;6.528;2022-11-20T11:22:44;39.50;;;22.30;;
9848;SDS011;4963;51.444;6.528;2022-11-20T11:25:19;41.00;;;22.57;;
9848;SDS011;4963;51.444;6.528;2022-11-20T11:27:59;38.83;;;21.63;;
9848;SDS011;4963;51.444;6.528;2022-11-20T11:30:27;31.27;;;19.03;;
9848;SDS011;4963;51.444;6.528;2022-11-20T11:33:03;38.13;;;22.20;;
9848;SDS011;4963;51.444;6.528;2022-11-20T11:35:33;32.00;;;20.67;;
9848;SDS011;4963;51.444;6.528;2022-11-20T11:38:06;33.57;;;19.27;;
9848;SDS011;4963;51.444;6.528;2022-11-20T11:40:39;31.83;;;20.87;;
9848;SDS011;4963;51.444;6.528;2022-11-20T11:43:15;30.63;;;20.07;;
9848;SDS011;4963;51.444;6.528;2022-11-20T11:45:58;27.70;;;17.40;;
9848;SDS011;4963;51.444;6.528;2022-11-20T11:48:25;28.40;;;18.20;;
9848;SDS011;4963;51.444;6.528;2022-11-20T11:50:53;33.33;;;20.10;;
9848;SDS011;4963;51.444;6.528;2022-11-20T11:53:21;30.23;;;18.23;;
9848;SDS011;4963;51.444;6.528;2022-11-20T11:55:50;33.93;;;19.43;;
9848;SDS011;4963;51.444;6.528;2022-11-20T11:58:37;34.63;;;20.07;;
9848;SDS011;4963;51.444;6.528;2022-11-20T12:01:12;36.77;;;22.43;;
9848;SDS011;4963;51.444;6.528;2022-11-20T12:03:52;34.33;;;21.43;;
9848;SDS011;4963;51.444;6.528;2022-11-20T12:06:28;38.70;;;22.17;;
9848;SDS011;4963;51.444;6.528;2022-11-20T12:08:57;38.60;;;22.43;;
9848;SDS011;4963;51.444;6.528;2022-11-20T12:11:29;35.57;;;20.07;;
9848;SDS011;4963;51.444;6.528;2022-11-20T12:14:00;37.90;;;22.60;;
9848;SDS011;4963;51.444;6.528;2022-11-20T12:16:30;37.50;;;20.80;;
9848;SDS011;4963;51.444;6.528;2022-11-20T12:19:03;36.17;;;21.33;;
9848;SDS011;4963;51.444;6.528;2022-11-20T12:21:39;39.03;;;20.77;;
9848;SDS011;4963;51.444;6.528;2022-11-20T12:24:21;35.43;;;21.13;;
9848;SDS011;4963;51.444;6.528;2022-11-20T12:27:04;34.83;;;21.30;;
9848;SDS011;4963;51.444;6.528;2022-11-20T12:29:43;36.60;;;21.33;;
9848;SDS011;4963;51.444;6.528;2022-11-20T12:32:25;36.07;;;20.73;;
9848;SDS011;4963;51.444;6.528;2022-11-20T12:35:05;32.80;;;19.30;;
9848;SDS011;4963;51.444;6.528;2022-11-20T12:37:45;32.53;;;19.77;;
9848;SDS011;4963;51.444;6.528;2022-11-20T12:40:25;30.33;;;20.20;;
9848;SDS011;4963;51.444;6.528;2022-11-20T12:43:01;32.37;;;20.13;;
9848;SDS011;4963;51.444;6.528;2022-11-20T12:46:14;31.37;;;19.40;;
9848;SDS011;4963;51.444;6.528;2022-11-20T12:48:52;31.57;;;18.53;;
9848;SDS011;4963;51.444;6.528;2022-11-20T12:51:42;31.73;;;18.00;;
9848;SDS011;4963;51.444;6.528;2022-11-20T12:54:38;29.73;;;19.40;;
9848;SDS011;4963;51.444;6.528;2022-11-20T12:57:15;32.27;;;19.93;;
9848;SDS011;4963;51.444;6.528;2022-11-20T12:59:52;33.50;;;20.63;;
9848;SDS011;4963;51.444;6.528;2022-11-20T13:02:27;29.77;;;20.70;;
9848;SDS011;4963;51.444;6.528;2022-11-20T13:05:16;33.00;;;20.70;;
9848;SDS011;4963;51.444;6.528;2022-11-20T13:07:47;35.47;;;20.73;;
9848;SDS011;4963;51.444;6.528;2022-11-20T13:10:21;35.03;;;21.67;;
9848;SDS011;4963;51.444;6.528;2022-11-20T13:12:58;32.10;;;21.27;;
9848;SDS011;4963;51.444;6.528;2022-11-20T13:15:35;32.73;;;20.20;;
9848;SDS011;4963;51.444;6.528;2022-11-20T13:18:13;28.57;;;19.07;;
9848;SDS011;4963;51.444;6.528;2022-11-20T13:20:41;33.73;;;19.70;;
9848;SDS011;4963;51.444;6.528;2022-11-20T13:23:10;29.80;;;19.87;;
9848;SDS011;4963;51.444;6.528;2022-11-20T13:25:38;31.73;;;18.47;;
9848;SDS011;4963;51.444;6.528;2022-11-20T13:30:54;29.37;;;19.47;;
9848;SDS011;4963;51.444;6.528;2022-11-20T13:33:23;26.00;;;17.73;;
9848;SDS011;4963;51.444;6.528;2022-11-20T13:35:57;29.57;;;19.57;;
9848;SDS011;4963;51.444;6.528;2022-11-20T13:38:25;29.07;;;18.80;;
9848;SDS011;4963;51.444;6.528;2022-11-20T13:40:54;32.33;;;20.20;;
9848;SDS011;4963;51.444;6.528;2022-11-20T13:43:26;29.90;;;20.23;;
9848;SDS011;4963;51.444;6.528;2022-11-20T13:45:56;28.87;;;18.77;;
9848;SDS011;4963;51.444;6.528;2022-11-20T13:48:26;31.67;;;19.80;;
9848;SDS011;4963;51.444;6.528;2022-11-20T13:53:54;29.63;;;19.50;;
9848;SDS011;4963;51.444;6.528;2022-11-20T13:56:34;30.23;;;19.27;;
9848;SDS011;4963;51.444;6.528;2022-11-20T13:59:10;31.73;;;20.50;;
9848;SDS011;4963;51.444;6.528;2022-11-20T14:01:47;29.53;;;19.77;;
9848;SDS011;4963;51.444;6.528;2022-11-20T14:04:15;34.73;;;21.83;;
9848;SDS011;4963;51.444;6.528;2022-11-20T14:06:49;31.07;;;20.90;;
9848;SDS011;4963;51.444;6.528;2022-11-20T14:09:24;32.17;;;20.90;;
9848;SDS011;4963;51.444;6.528;2022-11-20T14:11:53;42.23;;;24.70;;
9848;SDS011;4963;51.444;6.528;2022-11-20T14:14:21;33.90;;;22.23;;
9848;SDS011;4963;51.444;6.528;2022-11-20T14:16:49;31.27;;;20.23;;
9848;SDS011;4963;51.444;6.528;2022-11-20T14:19:22;28.83;;;19.73;;
9848;SDS011;4963;51.444;6.528;2022-11-20T14:21:54;30.17;;;20.50;;
9848;SDS011;4963;51.444;6.528;2022-11-20T14:24:33;29.90;;;20.53;;
9848;SDS011;4963;51.444;6.528;2022-11-20T14:27:01;29.97;;;20.93;;
9848;SDS011;4963;51.444;6.528;2022-11-20T14:29:28;40.70;;;24.03;;
9848;SDS011;4963;51.444;6.528;2022-11-20T14:31:59;34.23;;;22.30;;
9848;SDS011;4963;51.444;6.528;2022-11-20T14:34:27;34.97;;;22.83;;
9848;SDS011;4963;51.444;6.528;2022-11-20T14:36:57;33.37;;;21.57;;
9848;SDS011;4963;51.444;6.528;2022-11-20T14:39:27;37.30;;;22.23;;
9848;SDS011;4963;51.444;6.528;2022-11-20T14:41:57;35.33;;;22.80;;
9848;SDS011;4963;51.444;6.528;2022-11-20T14:44:27;33.97;;;21.90;;
9848;SDS011;4963;51.444;6.528;2022-11-20T14:46:57;39.43;;;24.97;;
9848;SDS011;4963;51.444;6.528;2022-11-20T14:49:25;35.40;;;22.33;;
9848;SDS011;4963;51.444;6.528;2022-11-20T14:51:58;34.27;;;23.03;;
9848;SDS011;4963;51.444;6.528;2022-11-20T14:54:26;37.20;;;23.17;;
9848;SDS011;4963;51.444;6.528;2022-11-20T14:56:55;34.40;;;22.47;;
9848;SDS011;4963;51.444;6.528;2022-11-20T14:59:23;35.80;;;22.73;;
9848;SDS011;4963;51.444;6.528;2022-11-20T15:01:56;40.37;;;24.07;;
9848;SDS011;4963;51.444;6.528;2022-11-20T15:04:24;39.57;;;24.57;;
9848;SDS011;4963;51.444;6.528;2022-11-20T15:06:52;40.67;;;25.07;;
9848;SDS011;4963;51.444;6.528;2022-11-20T15:09:20;38.23;;;23.70;;
9848;SDS011;4963;51.444;6.528;2022-11-20T15:11:52;42.10;;;24.97;;
9848;SDS011;4963;51.444;6.528;2022-11-20T15:14:21;41.17;;;25.53;;